sensor_id;sensor_type;location;lat;lon;timestamp;temperature;humidity
20370;DHT22;10344;47.592;9.600;2023-04-15T00:01:59;6.00;99.90
20370;DHT22;10344;47.592;9.600;2023-04-15T00:04:26;5.90;99.90
20370;DHT22;10344;47.592;9.600;2023-04-15T00:06:52;5.90;99.90
20370;DHT22;10344;47.592;9.600;2023-04-15T00:09:19;5.70;99.90
20370;DHT22;10344;47.592;9.600;2023-04-15T00:11:47;5.70;99.90
20370;DHT22;10344;47.592;9.600;2023-04-15T00:14:13;5.80;99.90
20370;DHT22;10344;47.592;9.600;2023-04-15T00:16:59;5.90;99.90
20370;DHT22;10344;47.592;9.600;2023-04-15T00:19:30;5.90;99.90
20370;DHT22;10344;47.592;9.600;2023-04-15T00:22:12;5.90;99.90
20370;DHT22;10344;47.592;9.600;2023-04-15T00:24:40;5.80;99.90
20370;DHT22;10344;47.592;9.600;2023-04-15T00:27:07;5.70;99.90
20370;DHT22;10344;47.592;9.600;2023-04-15T00:29:35;5.60;99.90
20370;DHT22;10344;47.592;9.600;2023-04-15T00:32:01;5.50;99.90
20370;DHT22;10344;47.592;9.600;2023-04-15T00:34:29;5.50;99.90
20370;DHT22;10344;47.592;9.600;2023-04-15T00:36:55;5.50;99.90
20370;DHT22;10344;47.592;9.600;2023-04-15T00:39:21;5.40;99.90
20370;DHT22;10344;47.592;9.600;2023-04-15T00:41:47;5.40;99.90
20370;DHT22;10344;47.592;9.600;2023-04-15T00:44:13;5.30;99.90
20370;DHT22;10344;47.592;9.600;2023-04-15T00:46:39;5.20;99.90
20370;DHT22;10344;47.592;9.600;2023-04-15T00:49:06;5.20;99.90
20370;DHT22;10344;47.592;9.600;2023-04-15T00:51:33;5.10;99.90
20370;DHT22;10344;47.592;9.600;2023-04-15T00:54:04;5.20;99.90
20370;DHT22;10344;47.592;9.600;2023-04-15T00:56:41;5.30;99.90
20370;DHT22;10344;47.592;9.600;2023-04-15T00:59:13;5.10;99.90
20370;DHT22;10344;47.592;9.600;2023-04-15T01:01:39;5.10;99.90
20370;DHT22;10344;47.592;9.600;2023-04-15T01:04:06;5.00;99.90
20370;DHT22;10344;47.592;9.600;2023-04-15T01:06:35;5.10;99.90
20370;DHT22;10344;47.592;9.600;2023-04-15T01:09:01;5.00;99.90
20370;DHT22;10344;47.592;9.600;2023-04-15T01:11:27;5.00;99.90
20370;DHT22;10344;47.592;9.600;2023-04-15T01:13:54;4.90;99.90
20370;DHT22;10344;47.592;9.600;2023-04-15T01:16:25;5.00;99.90
20370;DHT22;10344;47.592;9.600;2023-04-15T01:18:51;5.00;99.90
20370;DHT22;10344;47.592;9.600;2023-04-15T01:21:20;4.90;99.90
20370;DHT22;10344;47.592;9.600;2023-04-15T01:23:48;5.00;99.90
20370;DHT22;10344;47.592;9.600;2023-04-15T01:26:15;5.00;99.90
20370;DHT22;10344;47.592;9.600;2023-04-15T01:28:49;5.00;99.90
20370;DHT22;10344;47.592;9.600;2023-04-15T01:31:36;5.00;99.90
20370;DHT22;10344;47.592;9.600;2023-04-15T01:34:01;5.00;99.90
20370;DHT22;10344;47.592;9.600;2023-04-15T01:36:27;5.00;99.90
20370;DHT22;10344;47.592;9.600;2023-04-15T01:38:53;5.00;99.90
20370;DHT22;10344;47.592;9.600;2023-04-15T01:44:43;4.80;99.90
20370;DHT22;10344;47.592;9.600;2023-04-15T01:50:15;4.80;99.90
20370;DHT22;10344;47.592;9.600;2023-04-15T01:59:46;4.90;99.90
20370;DHT22;10344;47.592;9.600;2023-04-15T02:02:17;4.80;99.90
20370;DHT22;10344;47.592;9.600;2023-04-15T02:20:09;4.80;99.90
20370;DHT22;10344;47.592;9.600;2023-04-15T02:26:01;4.70;99.90
20370;DHT22;10344;47.592;9.600;2023-04-15T02:35:15;4.60;99.90
20370;DHT22;10344;47.592;9.600;2023-04-15T02:37:44;4.70;99.90
20370;DHT22;10344;47.592;9.600;2023-04-15T02:40:11;4.60;99.90
20370;DHT22;10344;47.592;9.600;2023-04-15T02:42:38;4.60;99.90
20370;DHT22;10344;47.592;9.600;2023-04-15T02:45:05;4.50;99.90
20370;DHT22;10344;47.592;9.600;2023-04-15T02:47:32;4.40;99.90
20370;DHT22;10344;47.592;9.600;2023-04-15T02:59:16;4.30;99.90
20370;DHT22;10344;47.592;9.600;2023-04-15T03:01:46;4.20;99.90
20370;DHT22;10344;47.592;9.600;2023-04-15T03:04:15;4.20;99.90
20370;DHT22;10344;47.592;9.600;2023-04-15T03:07:00;4.30;99.90
20370;DHT22;10344;47.592;9.600;2023-04-15T03:09:45;4.20;99.90
20370;DHT22;10344;47.592;9.600;2023-04-15T03:12:15;4.10;99.90
20370;DHT22;10344;47.592;9.600;2023-04-15T03:14:45;4.10;99.90
20370;DHT22;10344;47.592;9.600;2023-04-15T03:17:11;4.10;99.90
20370;DHT22;10344;47.592;9.600;2023-04-15T03:19:36;4.00;99.90
20370;DHT22;10344;47.592;9.600;2023-04-15T03:22:11;4.10;99.90
20370;DHT22;10344;47.592;9.600;2023-04-15T03:24:40;4.00;99.90
20370;DHT22;10344;47.592;9.600;2023-04-15T03:27:06;4.10;99.90
20370;DHT22;10344;47.592;9.600;2023-04-15T03:29:32;4.00;99.90
20370;DHT22;10344;47.592;9.600;2023-04-15T03:31:58;3.90;99.90
20370;DHT22;10344;47.592;9.600;2023-04-15T03:34:24;3.90;99.90
20370;DHT22;10344;47.592;9.600;2023-04-15T03:36:50;3.90;99.90
20370;DHT22;10344;47.592;9.600;2023-04-15T03:39:15;3.90;99.90
20370;DHT22;10344;47.592;9.600;2023-04-15T03:41:41;3.80;99.90
20370;DHT22;10344;47.592;9.600;2023-04-15T03:44:08;3.90;99.90
20370;DHT22;10344;47.592;9.600;2023-04-15T03:46:39;3.80;99.90
20370;DHT22;10344;47.592;9.600;2023-04-15T04:04:51;3.80;99.90
20370;DHT22;10344;47.592;9.600;2023-04-15T04:10:59;3.60;99.90
20370;DHT22;10344;47.592;9.600;2023-04-15T04:14:29;3.60;99.90
20370;DHT22;10344;47.592;9.600;2023-04-15T04:17:13;3.60;99.90
20370;DHT22;10344;47.592;9.600;2023-04-15T04:19:58;3.50;99.90
20370;DHT22;10344;47.592;9.600;2023-04-15T04:22:36;3.60;99.90
20370;DHT22;10344;47.592;9.600;2023-04-15T04:25:05;3.50;99.90
20370;DHT22;10344;47.592;9.600;2023-04-15T04:30:46;3.50;99.90
20370;DHT22;10344;47.592;9.600;2023-04-15T04:33:13;3.40;99.90
20370;DHT22;10344;47.592;9.600;2023-04-15T04:35:38;3.30;99.90
20370;DHT22;10344;47.592;9.600;2023-04-15T04:38:11;3.30;99.90
20370;DHT22;10344;47.592;9.600;2023-04-15T04:40:36;3.40;99.90
20370;DHT22;10344;47.592;9.600;2023-04-15T04:43:02;3.50;99.90
20370;DHT22;10344;47.592;9.600;2023-04-15T04:45:30;3.30;99.90
20370;DHT22;10344;47.592;9.600;2023-04-15T04:47:55;3.40;99.90
20370;DHT22;10344;47.592;9.600;2023-04-15T04:50:21;3.30;99.90
20370;DHT22;10344;47.592;9.600;2023-04-15T04:55:36;3.50;99.90
20370;DHT22;10344;47.592;9.600;2023-04-15T04:58:09;3.50;99.90
20370;DHT22;10344;47.592;9.600;2023-04-15T05:00:55;3.50;99.90
20370;DHT22;10344;47.592;9.600;2023-04-15T05:06:25;3.30;99.90
20370;DHT22;10344;47.592;9.600;2023-04-15T05:08:50;3.30;99.90
20370;DHT22;10344;47.592;9.600;2023-04-15T05:11:18;3.30;99.90
20370;DHT22;10344;47.592;9.600;2023-04-15T05:13:55;3.30;99.90
20370;DHT22;10344;47.592;9.600;2023-04-15T05:16:29;3.30;99.90
20370;DHT22;10344;47.592;9.600;2023-04-15T05:18:59;3.20;99.90
20370;DHT22;10344;47.592;9.600;2023-04-15T05:21:27;3.40;99.90
20370;DHT22;10344;47.592;9.600;2023-04-15T05:23:55;3.40;99.90
20370;DHT22;10344;47.592;9.600;2023-04-15T05:26:20;3.30;99.90
20370;DHT22;10344;47.592;9.600;2023-04-15T05:28:48;3.40;99.90
20370;DHT22;10344;47.592;9.600;2023-04-15T05:31:16;3.40;99.90
20370;DHT22;10344;47.592;9.600;2023-04-15T05:33:42;3.60;99.90
20370;DHT22;10344;47.592;9.600;2023-04-15T05:36:10;3.70;99.90
20370;DHT22;10344;47.592;9.600;2023-04-15T05:38:36;3.80;99.90
20370;DHT22;10344;47.592;9.600;2023-04-15T05:41:02;3.80;99.90
20370;DHT22;10344;47.592;9.600;2023-04-15T05:43:27;4.00;99.90
20370;DHT22;10344;47.592;9.600;2023-04-15T05:45:54;4.10;99.90
20370;DHT22;10344;47.592;9.600;2023-04-15T05:48:26;4.10;99.90
20370;DHT22;10344;47.592;9.600;2023-04-15T05:54:14;4.50;99.90
20370;DHT22;10344;47.592;9.600;2023-04-15T05:56:42;4.60;99.90
20370;DHT22;10344;47.592;9.600;2023-04-15T05:59:08;4.70;99.90
20370;DHT22;10344;47.592;9.600;2023-04-15T06:01:33;4.70;99.90
20370;DHT22;10344;47.592;9.600;2023-04-15T06:04:00;4.90;99.90
20370;DHT22;10344;47.592;9.600;2023-04-15T06:06:26;5.00;99.90
20370;DHT22;10344;47.592;9.600;2023-04-15T06:08:52;5.10;99.90
20370;DHT22;10344;47.592;9.600;2023-04-15T06:11:20;5.10;99.90
20370;DHT22;10344;47.592;9.600;2023-04-15T06:13:46;5.20;99.90
20370;DHT22;10344;47.592;9.600;2023-04-15T06:16:12;5.40;99.90
20370;DHT22;10344;47.592;9.600;2023-04-15T06:18:37;5.60;99.90
20370;DHT22;10344;47.592;9.600;2023-04-15T06:21:03;5.70;99.90
20370;DHT22;10344;47.592;9.600;2023-04-15T06:23:39;5.90;99.90
20370;DHT22;10344;47.592;9.600;2023-04-15T06:26:09;6.10;99.90
20370;DHT22;10344;47.592;9.600;2023-04-15T06:28:48;6.20;99.90
20370;DHT22;10344;47.592;9.600;2023-04-15T06:31:33;6.40;99.90
20370;DHT22;10344;47.592;9.600;2023-04-15T06:33:58;6.60;99.90
20370;DHT22;10344;47.592;9.600;2023-04-15T06:36:24;6.60;99.90
20370;DHT22;10344;47.592;9.600;2023-04-15T06:38:49;6.80;99.90
20370;DHT22;10344;47.592;9.600;2023-04-15T06:41:15;7.00;99.90
20370;DHT22;10344;47.592;9.600;2023-04-15T06:43:53;7.20;99.90
20370;DHT22;10344;47.592;9.600;2023-04-15T06:46:18;7.20;99.90
20370;DHT22;10344;47.592;9.600;2023-04-15T06:48:46;7.40;99.90
20370;DHT22;10344;47.592;9.600;2023-04-15T06:51:15;8.00;99.90
20370;DHT22;10344;47.592;9.600;2023-04-15T06:53:43;8.70;99.90
20370;DHT22;10344;47.592;9.600;2023-04-15T06:56:09;9.40;99.90
20370;DHT22;10344;47.592;9.600;2023-04-15T06:58:34;9.90;99.90
20370;DHT22;10344;47.592;9.600;2023-04-15T07:01:00;10.50;99.90
20370;DHT22;10344;47.592;9.600;2023-04-15T07:03:28;11.30;99.90
20370;DHT22;10344;47.592;9.600;2023-04-15T07:05:54;11.90;99.90
20370;DHT22;10344;47.592;9.600;2023-04-15T07:08:20;12.20;99.90
20370;DHT22;10344;47.592;9.600;2023-04-15T07:10:48;12.80;99.90
20370;DHT22;10344;47.592;9.600;2023-04-15T07:13:14;13.10;99.90
20370;DHT22;10344;47.592;9.600;2023-04-15T07:15:40;12.20;99.90
20370;DHT22;10344;47.592;9.600;2023-04-15T07:18:05;11.60;99.90
20370;DHT22;10344;47.592;9.600;2023-04-15T07:20:33;11.40;99.90
20370;DHT22;10344;47.592;9.600;2023-04-15T07:22:59;11.20;99.90
20370;DHT22;10344;47.592;9.600;2023-04-15T07:25:27;10.80;99.90
20370;DHT22;10344;47.592;9.600;2023-04-15T07:27:55;10.20;99.90
20370;DHT22;10344;47.592;9.600;2023-04-15T07:30:20;10.10;99.90
20370;DHT22;10344;47.592;9.600;2023-04-15T07:32:46;9.90;99.90
20370;DHT22;10344;47.592;9.600;2023-04-15T07:35:14;9.70;99.90
20370;DHT22;10344;47.592;9.600;2023-04-15T07:37:40;9.60;99.90
20370;DHT22;10344;47.592;9.600;2023-04-15T07:40:08;9.50;99.90
20370;DHT22;10344;47.592;9.600;2023-04-15T07:42:36;9.50;99.90
20370;DHT22;10344;47.592;9.600;2023-04-15T07:45:02;9.50;99.90
20370;DHT22;10344;47.592;9.600;2023-04-15T07:47:28;9.50;99.90
20370;DHT22;10344;47.592;9.600;2023-04-15T07:49:54;9.50;99.90
20370;DHT22;10344;47.592;9.600;2023-04-15T07:52:19;9.40;99.90
20370;DHT22;10344;47.592;9.600;2023-04-15T07:54:45;9.40;99.90
20370;DHT22;10344;47.592;9.600;2023-04-15T07:57:11;9.30;99.90
20370;DHT22;10344;47.592;9.600;2023-04-15T07:59:39;9.10;99.90
20370;DHT22;10344;47.592;9.600;2023-04-15T08:02:07;9.40;99.90
20370;DHT22;10344;47.592;9.600;2023-04-15T08:04:32;9.50;99.90
20370;DHT22;10344;47.592;9.600;2023-04-15T08:06:58;9.60;99.90
20370;DHT22;10344;47.592;9.600;2023-04-15T08:09:24;9.70;99.90
20370;DHT22;10344;47.592;9.600;2023-04-15T08:11:53;9.90;99.90
20370;DHT22;10344;47.592;9.600;2023-04-15T08:14:19;10.00;99.90
20370;DHT22;10344;47.592;9.600;2023-04-15T08:16:47;10.60;99.90
20370;DHT22;10344;47.592;9.600;2023-04-15T08:19:13;11.20;99.90
20370;DHT22;10344;47.592;9.600;2023-04-15T08:21:38;11.70;99.90
20370;DHT22;10344;47.592;9.600;2023-04-15T08:24:05;11.90;99.90
20370;DHT22;10344;47.592;9.600;2023-04-15T08:26:31;12.30;99.90
20370;DHT22;10344;47.592;9.600;2023-04-15T08:28:57;12.70;99.90
20370;DHT22;10344;47.592;9.600;2023-04-15T08:31:27;13.00;99.90
20370;DHT22;10344;47.592;9.600;2023-04-15T08:33:55;12.90;99.90
20370;DHT22;10344;47.592;9.600;2023-04-15T08:36:21;12.90;99.90
20370;DHT22;10344;47.592;9.600;2023-04-15T08:38:49;12.80;99.90
20370;DHT22;10344;47.592;9.600;2023-04-15T08:41:24;12.50;99.90
20370;DHT22;10344;47.592;9.600;2023-04-15T08:44:01;12.60;99.90
20370;DHT22;10344;47.592;9.600;2023-04-15T08:46:31;12.90;99.90
20370;DHT22;10344;47.592;9.600;2023-04-15T08:48:59;13.30;99.90
20370;DHT22;10344;47.592;9.600;2023-04-15T08:51:27;13.50;99.90
20370;DHT22;10344;47.592;9.600;2023-04-15T08:53:54;13.50;99.90
20370;DHT22;10344;47.592;9.600;2023-04-15T08:56:24;13.20;99.90
20370;DHT22;10344;47.592;9.600;2023-04-15T08:58:52;13.00;99.90
20370;DHT22;10344;47.592;9.600;2023-04-15T09:01:22;13.20;99.90
20370;DHT22;10344;47.592;9.600;2023-04-15T09:03:48;13.50;99.90
20370;DHT22;10344;47.592;9.600;2023-04-15T09:06:16;13.80;99.90
20370;DHT22;10344;47.592;9.600;2023-04-15T09:08:42;14.10;99.90
20370;DHT22;10344;47.592;9.600;2023-04-15T09:11:08;14.10;99.90
20370;DHT22;10344;47.592;9.600;2023-04-15T09:13:33;14.50;99.90
20370;DHT22;10344;47.592;9.600;2023-04-15T09:16:02;14.70;99.90
20370;DHT22;10344;47.592;9.600;2023-04-15T09:18:33;14.80;99.90
20370;DHT22;10344;47.592;9.600;2023-04-15T09:21:12;14.80;99.90
20370;DHT22;10344;47.592;9.600;2023-04-15T09:23:53;14.50;99.90
20370;DHT22;10344;47.592;9.600;2023-04-15T09:26:19;14.00;99.90
20370;DHT22;10344;47.592;9.600;2023-04-15T09:28:44;13.70;99.90
20370;DHT22;10344;47.592;9.600;2023-04-15T09:31:12;13.40;99.90
20370;DHT22;10344;47.592;9.600;2023-04-15T09:33:54;13.20;99.90
20370;DHT22;10344;47.592;9.600;2023-04-15T09:36:27;13.00;99.90
20370;DHT22;10344;47.592;9.600;2023-04-15T09:38:58;12.90;99.90
20370;DHT22;10344;47.592;9.600;2023-04-15T09:41:27;12.60;99.90
20370;DHT22;10344;47.592;9.600;2023-04-15T09:43:53;12.60;99.90
20370;DHT22;10344;47.592;9.600;2023-04-15T09:46:18;12.70;99.90
20370;DHT22;10344;47.592;9.600;2023-04-15T09:48:44;12.70;99.90
20370;DHT22;10344;47.592;9.600;2023-04-15T09:51:10;12.80;99.90
20370;DHT22;10344;47.592;9.600;2023-04-15T09:53:38;12.90;99.90
20370;DHT22;10344;47.592;9.600;2023-04-15T09:56:04;13.00;99.90
20370;DHT22;10344;47.592;9.600;2023-04-15T09:58:33;12.90;99.90
20370;DHT22;10344;47.592;9.600;2023-04-15T10:01:02;12.80;99.90
20370;DHT22;10344;47.592;9.600;2023-04-15T10:03:30;12.90;99.90
20370;DHT22;10344;47.592;9.600;2023-04-15T10:05:58;12.70;99.90
20370;DHT22;10344;47.592;9.600;2023-04-15T10:08:29;12.60;99.90
20370;DHT22;10344;47.592;9.600;2023-04-15T10:10:55;12.50;99.90
20370;DHT22;10344;47.592;9.600;2023-04-15T10:13:28;12.40;99.90
20370;DHT22;10344;47.592;9.600;2023-04-15T10:16:00;12.40;99.90
20370;DHT22;10344;47.592;9.600;2023-04-15T10:18:27;12.20;99.90
20370;DHT22;10344;47.592;9.600;2023-04-15T10:20:54;12.00;99.90
20370;DHT22;10344;47.592;9.600;2023-04-15T10:23:21;11.90;99.90
20370;DHT22;10344;47.592;9.600;2023-04-15T10:25:48;11.90;99.90
20370;DHT22;10344;47.592;9.600;2023-04-15T10:28:16;12.10;99.90
20370;DHT22;10344;47.592;9.600;2023-04-15T10:30:42;12.50;99.90
20370;DHT22;10344;47.592;9.600;2023-04-15T10:33:13;13.00;99.90
20370;DHT22;10344;47.592;9.600;2023-04-15T10:35:39;13.50;99.90
20370;DHT22;10344;47.592;9.600;2023-04-15T10:43:37;14.20;99.90
20370;DHT22;10344;47.592;9.600;2023-04-15T10:46:07;14.30;99.90
20370;DHT22;10344;47.592;9.600;2023-04-15T10:48:35;14.40;99.90
20370;DHT22;10344;47.592;9.600;2023-04-15T10:51:03;14.10;99.90
20370;DHT22;10344;47.592;9.600;2023-04-15T10:53:30;14.10;99.90
20370;DHT22;10344;47.592;9.600;2023-04-15T10:55:56;13.90;99.90
20370;DHT22;10344;47.592;9.600;2023-04-15T10:58:27;13.90;99.90
20370;DHT22;10344;47.592;9.600;2023-04-15T11:01:05;13.90;99.90
20370;DHT22;10344;47.592;9.600;2023-04-15T11:03:39;14.00;99.90
20370;DHT22;10344;47.592;9.600;2023-04-15T11:06:06;14.30;99.90
20370;DHT22;10344;47.592;9.600;2023-04-15T11:08:57;14.20;99.90
20370;DHT22;10344;47.592;9.600;2023-04-15T11:12:04;13.60;99.90
20370;DHT22;10344;47.592;9.600;2023-04-15T11:14:29;13.20;99.90
20370;DHT22;10344;47.592;9.600;2023-04-15T11:16:54;13.00;99.90
20370;DHT22;10344;47.592;9.600;2023-04-15T11:19:23;12.80;99.90
20370;DHT22;10344;47.592;9.600;2023-04-15T11:21:48;12.70;99.90
20370;DHT22;10344;47.592;9.600;2023-04-15T11:24:26;12.90;99.90
20370;DHT22;10344;47.592;9.600;2023-04-15T11:26:57;13.20;99.90
20370;DHT22;10344;47.592;9.600;2023-04-15T11:29:28;13.80;99.90
20370;DHT22;10344;47.592;9.600;2023-04-15T11:32:07;14.40;99.90
20370;DHT22;10344;47.592;9.600;2023-04-15T11:34:35;15.00;99.90
20370;DHT22;10344;47.592;9.600;2023-04-15T11:37:07;15.30;99.90
20370;DHT22;10344;47.592;9.600;2023-04-15T11:39:36;15.50;99.90
20370;DHT22;10344;47.592;9.600;2023-04-15T11:42:15;15.60;99.90
20370;DHT22;10344;47.592;9.600;2023-04-15T11:44:41;15.70;99.90
20370;DHT22;10344;47.592;9.600;2023-04-15T11:47:23;15.80;99.90
20370;DHT22;10344;47.592;9.600;2023-04-15T11:49:50;15.90;99.90
20370;DHT22;10344;47.592;9.600;2023-04-15T11:52:16;15.80;99.90
20370;DHT22;10344;47.592;9.600;2023-04-15T11:54:42;15.80;99.90
20370;DHT22;10344;47.592;9.600;2023-04-15T11:57:07;15.70;99.90
20370;DHT22;10344;47.592;9.600;2023-04-15T11:59:43;15.70;99.90
20370;DHT22;10344;47.592;9.600;2023-04-15T12:02:12;15.50;99.90
20370;DHT22;10344;47.592;9.600;2023-04-15T12:04:40;15.40;99.90
20370;DHT22;10344;47.592;9.600;2023-04-15T12:07:08;15.00;99.90
20370;DHT22;10344;47.592;9.600;2023-04-15T12:09:36;14.40;99.90
20370;DHT22;10344;47.592;9.600;2023-04-15T12:12:07;13.90;99.90
20370;DHT22;10344;47.592;9.600;2023-04-15T12:14:33;13.70;99.90
20370;DHT22;10344;47.592;9.600;2023-04-15T12:17:05;13.60;99.90
20370;DHT22;10344;47.592;9.600;2023-04-15T12:19:35;13.70;99.90
20370;DHT22;10344;47.592;9.600;2023-04-15T12:22:04;13.80;99.90
20370;DHT22;10344;47.592;9.600;2023-04-15T12:24:34;13.70;99.90
20370;DHT22;10344;47.592;9.600;2023-04-15T12:27:07;13.50;99.90
20370;DHT22;10344;47.592;9.600;2023-04-15T12:29:34;13.40;99.90
20370;DHT22;10344;47.592;9.600;2023-04-15T12:34:40;13.60;99.90
20370;DHT22;10344;47.592;9.600;2023-04-15T12:37:11;13.60;99.90
20370;DHT22;10344;47.592;9.600;2023-04-15T12:39:41;13.60;99.90
20370;DHT22;10344;47.592;9.600;2023-04-15T12:42:13;13.30;99.90
20370;DHT22;10344;47.592;9.600;2023-04-15T12:44:41;13.30;99.90
20370;DHT22;10344;47.592;9.600;2023-04-15T12:47:09;13.10;99.90
20370;DHT22;10344;47.592;9.600;2023-04-15T12:49:38;13.00;99.90
20370;DHT22;10344;47.592;9.600;2023-04-15T12:52:04;12.70;99.90
20370;DHT22;10344;47.592;9.600;2023-04-15T12:54:30;12.40;99.90
20370;DHT22;10344;47.592;9.600;2023-04-15T12:56:59;12.40;99.90
20370;DHT22;10344;47.592;9.600;2023-04-15T12:59:27;12.40;99.90
20370;DHT22;10344;47.592;9.600;2023-04-15T13:01:56;12.60;99.90
20370;DHT22;10344;47.592;9.600;2023-04-15T13:04:22;12.50;99.90
20370;DHT22;10344;47.592;9.600;2023-04-15T13:06:52;12.50;99.90
20370;DHT22;10344;47.592;9.600;2023-04-15T13:09:17;12.50;99.90
20370;DHT22;10344;47.592;9.600;2023-04-15T13:11:45;12.50;99.90
20370;DHT22;10344;47.592;9.600;2023-04-15T13:14:11;12.60;99.90
20370;DHT22;10344;47.592;9.600;2023-04-15T13:16:37;12.50;99.90
20370;DHT22;10344;47.592;9.600;2023-04-15T13:19:03;12.40;99.90
20370;DHT22;10344;47.592;9.600;2023-04-15T13:21:30;12.40;99.90
20370;DHT22;10344;47.592;9.600;2023-04-15T13:24:02;12.50;99.90
20370;DHT22;10344;47.592;9.600;2023-04-15T13:26:28;13.00;99.90
20370;DHT22;10344;47.592;9.600;2023-04-15T13:28:54;13.40;99.90
20370;DHT22;10344;47.592;9.600;2023-04-15T13:31:22;13.80;99.90
20370;DHT22;10344;47.592;9.600;2023-04-15T13:33:47;13.90;99.90
20370;DHT22;10344;47.592;9.600;2023-04-15T13:36:13;13.70;99.90
20370;DHT22;10344;47.592;9.600;2023-04-15T13:38:39;13.50;99.90
20370;DHT22;10344;47.592;9.600;2023-04-15T13:41:07;13.60;99.90
20370;DHT22;10344;47.592;9.600;2023-04-15T13:43:32;13.60;99.90
20370;DHT22;10344;47.592;9.600;2023-04-15T13:46:00;13.50;99.90
20370;DHT22;10344;47.592;9.600;2023-04-15T13:48:29;13.30;99.90
20370;DHT22;10344;47.592;9.600;2023-04-15T13:50:58;13.30;99.90
20370;DHT22;10344;47.592;9.600;2023-04-15T13:53:23;13.20;99.90
20370;DHT22;10344;47.592;9.600;2023-04-15T13:55:51;13.10;99.90
20370;DHT22;10344;47.592;9.600;2023-04-15T13:58:17;13.00;99.90
20370;DHT22;10344;47.592;9.600;2023-04-15T14:00:45;12.90;99.90
20370;DHT22;10344;47.592;9.600;2023-04-15T14:03:10;13.00;99.90
20370;DHT22;10344;47.592;9.600;2023-04-15T14:05:38;13.20;99.90
20370;DHT22;10344;47.592;9.600;2023-04-15T14:08:07;13.20;99.90
20370;DHT22;10344;47.592;9.600;2023-04-15T14:10:38;13.20;99.90
20370;DHT22;10344;47.592;9.600;2023-04-15T14:13:04;13.30;99.90
20370;DHT22;10344;47.592;9.600;2023-04-15T14:15:32;13.40;99.90
20370;DHT22;10344;47.592;9.600;2023-04-15T14:18:00;13.60;99.90
20370;DHT22;10344;47.592;9.600;2023-04-15T14:20:26;13.70;99.90
20370;DHT22;10344;47.592;9.600;2023-04-15T14:22:51;13.90;99.90
20370;DHT22;10344;47.592;9.600;2023-04-15T14:25:17;14.00;99.90
20370;DHT22;10344;47.592;9.600;2023-04-15T14:27:45;14.00;99.90
20370;DHT22;10344;47.592;9.600;2023-04-15T14:30:13;14.00;99.90
20370;DHT22;10344;47.592;9.600;2023-04-15T14:32:41;13.90;99.90
20370;DHT22;10344;47.592;9.600;2023-04-15T14:35:07;13.80;99.90
20370;DHT22;10344;47.592;9.600;2023-04-15T14:37:32;13.80;99.90
20370;DHT22;10344;47.592;9.600;2023-04-15T14:39:58;13.90;99.90
20370;DHT22;10344;47.592;9.600;2023-04-15T14:42:24;13.80;99.90
20370;DHT22;10344;47.592;9.600;2023-04-15T14:44:49;13.80;99.90
20370;DHT22;10344;47.592;9.600;2023-04-15T14:47:15;13.90;99.90
20370;DHT22;10344;47.592;9.600;2023-04-15T14:49:41;13.90;99.90
20370;DHT22;10344;47.592;9.600;2023-04-15T14:52:07;13.90;99.90
20370;DHT22;10344;47.592;9.600;2023-04-15T14:54:32;14.00;99.90
20370;DHT22;10344;47.592;9.600;2023-04-15T14:57:00;14.00;99.90
20370;DHT22;10344;47.592;9.600;2023-04-15T14:59:26;14.00;99.90
20370;DHT22;10344;47.592;9.600;2023-04-15T15:01:59;13.90;99.90
20370;DHT22;10344;47.592;9.600;2023-04-15T15:04:30;13.90;99.90
20370;DHT22;10344;47.592;9.600;2023-04-15T15:06:58;13.80;99.90
20370;DHT22;10344;47.592;9.600;2023-04-15T15:09:24;13.80;99.90
20370;DHT22;10344;47.592;9.600;2023-04-15T15:11:52;13.70;99.90
20370;DHT22;10344;47.592;9.600;2023-04-15T15:14:23;13.70;99.90
20370;DHT22;10344;47.592;9.600;2023-04-15T15:16:49;13.60;99.90
20370;DHT22;10344;47.592;9.600;2023-04-15T15:19:17;13.40;99.90
20370;DHT22;10344;47.592;9.600;2023-04-15T15:21:45;13.30;99.90
20370;DHT22;10344;47.592;9.600;2023-04-15T15:24:11;13.20;99.90
20370;DHT22;10344;47.592;9.600;2023-04-15T15:26:36;13.10;99.90
20370;DHT22;10344;47.592;9.600;2023-04-15T15:29:02;12.90;99.90
20370;DHT22;10344;47.592;9.600;2023-04-15T15:31:33;12.90;99.90
20370;DHT22;10344;47.592;9.600;2023-04-15T15:33:58;12.80;99.90
20370;DHT22;10344;47.592;9.600;2023-04-15T15:36:26;12.60;99.90
20370;DHT22;10344;47.592;9.600;2023-04-15T15:38:52;12.50;99.90
20370;DHT22;10344;47.592;9.600;2023-04-15T15:41:20;12.50;99.90
20370;DHT22;10344;47.592;9.600;2023-04-15T15:43:48;12.50;99.90
20370;DHT22;10344;47.592;9.600;2023-04-15T15:46:14;12.50;99.90
20370;DHT22;10344;47.592;9.600;2023-04-15T15:48:42;12.20;99.90
20370;DHT22;10344;47.592;9.600;2023-04-15T15:51:10;12.10;99.90
20370;DHT22;10344;47.592;9.600;2023-04-15T15:53:38;12.10;99.90
20370;DHT22;10344;47.592;9.600;2023-04-15T15:56:04;12.00;99.90
20370;DHT22;10344;47.592;9.600;2023-04-15T15:58:30;11.90;99.90
20370;DHT22;10344;47.592;9.600;2023-04-15T16:00:55;11.90;99.90
20370;DHT22;10344;47.592;9.600;2023-04-15T16:03:24;11.80;99.90
20370;DHT22;10344;47.592;9.600;2023-04-15T16:05:49;11.80;99.90
20370;DHT22;10344;47.592;9.600;2023-04-15T16:08:15;11.70;99.90
20370;DHT22;10344;47.592;9.600;2023-04-15T16:10:44;11.60;99.90
20370;DHT22;10344;47.592;9.600;2023-04-15T16:13:12;11.50;99.90
20370;DHT22;10344;47.592;9.600;2023-04-15T16:15:38;11.40;99.90
20370;DHT22;10344;47.592;9.600;2023-04-15T16:18:04;11.50;99.90
20370;DHT22;10344;47.592;9.600;2023-04-15T16:20:34;11.60;99.90
20370;DHT22;10344;47.592;9.600;2023-04-15T16:23:00;11.60;99.90
20370;DHT22;10344;47.592;9.600;2023-04-15T16:25:29;11.70;99.90
20370;DHT22;10344;47.592;9.600;2023-04-15T16:27:57;11.60;99.90
20370;DHT22;10344;47.592;9.600;2023-04-15T16:30:23;11.60;99.90
20370;DHT22;10344;47.592;9.600;2023-04-15T16:32:49;11.50;99.90
20370;DHT22;10344;47.592;9.600;2023-04-15T16:35:15;11.40;99.90
20370;DHT22;10344;47.592;9.600;2023-04-15T16:37:43;11.30;99.90
20370;DHT22;10344;47.592;9.600;2023-04-15T16:40:11;11.10;99.90
20370;DHT22;10344;47.592;9.600;2023-04-15T16:42:37;10.80;99.90
20370;DHT22;10344;47.592;9.600;2023-04-15T16:45:08;10.30;99.90
20370;DHT22;10344;47.592;9.600;2023-04-15T16:47:33;9.80;99.90
20370;DHT22;10344;47.592;9.600;2023-04-15T16:49:59;9.30;99.90
20370;DHT22;10344;47.592;9.600;2023-04-15T16:52:27;9.10;99.90
20370;DHT22;10344;47.592;9.600;2023-04-15T16:54:53;8.90;99.90
20370;DHT22;10344;47.592;9.600;2023-04-15T16:57:19;8.70;99.90
20370;DHT22;10344;47.592;9.600;2023-04-15T16:59:45;8.60;99.90
20370;DHT22;10344;47.592;9.600;2023-04-15T17:02:13;8.70;99.90
20370;DHT22;10344;47.592;9.600;2023-04-15T17:04:41;8.60;99.90
20370;DHT22;10344;47.592;9.600;2023-04-15T17:07:06;8.50;99.90
20370;DHT22;10344;47.592;9.600;2023-04-15T17:09:38;8.30;99.90
20370;DHT22;10344;47.592;9.600;2023-04-15T17:12:06;8.10;99.90
20370;DHT22;10344;47.592;9.600;2023-04-15T17:14:32;8.00;99.90